createdAt,value
2023-11-02T00:00:10.692Z,92650.16
2023-11-02T00:01:42.327Z,92648.56
2023-11-02T00:03:16.676Z,92647.59
2023-11-02T00:04:48.930Z,92638.41
2023-11-02T00:06:29.695Z,92643.34
2023-11-02T00:08:01.325Z,92637.47
2023-11-02T00:09:32.948Z,92643.81
2023-11-02T00:11:04.776Z,92644.28
2023-11-02T00:12:36.575Z,92641.59
2023-11-02T00:14:10.183Z,92641.72
2023-11-02T00:15:42.376Z,92639.81
2023-11-02T00:17:37.767Z,92640.13
2023-11-02T00:19:18.839Z,92634.75
2023-11-02T00:20:51.297Z,92635.53
2023-11-02T00:22:22.901Z,92637.13
2023-11-02T00:23:54.646Z,92640.28
2023-11-02T00:25:32.920Z,92637.13
2023-11-02T00:27:04.680Z,92635.53
2023-11-02T00:28:38.644Z,92632.69
2023-11-02T00:30:10.535Z,92637.44
2023-11-02T00:31:42.235Z,92632.03
2023-11-02T00:33:14.678Z,92626.81
2023-11-02T00:34:46.941Z,92623.50
2023-11-02T00:36:19.077Z,92620.31
2023-11-02T00:37:50.815Z,92622.53
2023-11-02T00:39:22.338Z,92618.75
2023-11-02T00:40:54.708Z,92606.38
2023-11-02T00:42:26.311Z,92608.59
2023-11-02T00:43:58.564Z,92607.03
2023-11-02T00:45:30.183Z,92610.19
2023-11-02T00:47:01.836Z,92604.34
2023-11-02T00:48:34.153Z,92605.91
2023-11-02T00:50:07.198Z,92618.25
2023-11-02T00:51:39.545Z,92614.34
2023-11-02T00:53:12.836Z,92618.47
2023-11-02T00:54:44.615Z,92617.34
2023-11-02T00:56:16.665Z,92614.66
2023-11-02T00:57:48.652Z,92614.34
2023-11-02T00:59:20.710Z,92614.19
2023-11-02T01:00:55.312Z,92616.88
2023-11-02T01:02:29.365Z,92613.84
2023-11-02T01:04:07.201Z,92614.19
2023-11-02T01:05:38.884Z,92611.00
2023-11-02T01:07:14.116Z,92609.09
2023-11-02T01:08:45.905Z,92607.84
2023-11-02T01:10:17.578Z,92611.00
2023-11-02T01:11:49.269Z,92596.75
2023-11-02T01:13:21.177Z,92598.84
2023-11-02T01:14:53.204Z,92596.47
2023-11-02T01:16:25.064Z,92604.22
2023-11-02T01:17:56.723Z,92605.78
2023-11-02T01:19:48.592Z,92606.78
2023-11-02T01:21:20.455Z,92608.19
2023-11-02T01:22:53.566Z,92607.88
2023-11-02T01:24:25.361Z,92605.34
2023-11-02T01:25:56.941Z,92603.75
2023-11-02T01:27:29.394Z,92595.69
2023-11-02T01:29:01.069Z,92601.84
2023-11-02T01:30:42.023Z,92609.63
2023-11-02T01:32:13.604Z,92605.34
2023-11-02T01:33:55.471Z,92601.38
2023-11-02T01:35:30.045Z,92598.22
2023-11-02T01:37:02.133Z,92600.91
2023-11-02T01:38:34.257Z,92604.72
2023-11-02T01:40:09.824Z,92598.53
2023-11-02T01:41:51.360Z,92603.91
2023-11-02T01:43:26.143Z,92611.84
2023-11-02T01:45:06.588Z,92618.94
2023-11-02T01:46:42.021Z,92626.38
2023-11-02T01:48:13.922Z,92615.94
2023-11-02T01:49:48.888Z,92605.34
2023-11-02T01:51:23.792Z,92609.47
2023-11-02T01:53:03.047Z,92593.16
2023-11-02T01:54:37.481Z,92592.66
2023-11-02T01:56:18.401Z,92583.19
2023-11-02T02:00:17.196Z,92556.31
2023-11-02T02:01:53.247Z,92544.63
2023-11-02T02:03:28.247Z,92537.66
2023-11-02T02:05:04.354Z,92534.97
2023-11-02T02:06:45.020Z,92535.13
2023-11-02T02:08:25.645Z,92538.72
2023-11-02T02:10:02.947Z,92541.75
2023-11-02T02:11:47.487Z,92533.00
2023-11-02T02:13:23.401Z,92528.34
2023-11-02T02:15:04.733Z,92528.81
2023-11-02T02:16:41.847Z,92521.38
2023-11-02T02:18:32.160Z,92539.13
2023-11-02T02:20:06.854Z,92526.44
2023-11-02T02:21:39.947Z,92525.00
2023-11-02T02:23:20.615Z,92523.88
2023-11-02T02:24:59.528Z,92525.13
2023-11-02T02:26:54.933Z,92529.88
2023-11-02T02:28:30.911Z,92537.50
2023-11-02T02:30:14.729Z,92533.06
2023-11-02T02:32:05.208Z,92538.66
2023-11-02T02:33:37.458Z,92544.19
2023-11-02T02:35:21.098Z,92541.38
2023-11-02T02:36:52.735Z,92546.28
2023-11-02T02:38:29.864Z,92534.25
2023-11-02T02:40:08.434Z,92541.88
2023-11-02T02:41:43.035Z,92537.59
2023-11-02T02:43:14.598Z,92534.44
2023-11-02T02:44:47.663Z,92526.03
2023-11-02T02:46:20.682Z,92534.25
2023-11-02T02:47:52.307Z,92521.91
2023-11-02T02:49:24.157Z,92531.72
2023-11-02T02:50:59.085Z,92534.88
2023-11-02T02:52:31.112Z,92521.06
2023-11-02T02:54:11.905Z,92510.97
2023-11-02T02:55:44.263Z,92513.50
2023-11-02T02:57:17.512Z,92541.69
2023-11-02T02:58:51.744Z,92554.06
2023-11-02T03:00:23.621Z,92538.69
2023-11-02T03:01:55.711Z,92555.16
2023-11-02T03:03:27.440Z,92561.66
2023-11-02T03:04:59.177Z,92573.53
2023-11-02T03:06:30.795Z,92600.81
2023-11-02T03:08:03.502Z,92607.78
2023-11-02T03:09:35.458Z,92605.44
2023-11-02T03:11:15.385Z,92613.19
2023-11-02T03:12:51.044Z,92605.13
2023-11-02T03:14:22.576Z,92609.25
2023-11-02T03:15:54.647Z,92609.25
2023-11-02T03:17:30.112Z,92615.72
2023-11-02T03:19:02.368Z,92603.72
2023-11-02T03:20:34.309Z,92597.06
2023-11-02T03:22:06.053Z,92600.56
2023-11-02T03:23:46.648Z,92588.19
2023-11-02T03:25:25.309Z,92581.84
2023-11-02T03:27:03.364Z,92586.09
2023-11-02T03:28:43.743Z,92584.19
2023-11-02T03:30:29.461Z,92583.41
2023-11-02T03:32:06.833Z,92580.72
2023-11-02T03:33:42.326Z,92577.72
2023-11-02T03:35:21.572Z,92554.63
2023-11-02T03:37:02.281Z,92561.59
2023-11-02T03:38:47.981Z,92557.31
2023-11-02T03:40:34.617Z,92559.22
2023-11-02T03:42:06.175Z,92557.31
2023-11-02T03:43:48.960Z,92558.72
2023-11-02T03:45:42.880Z,92552.25
2023-11-02T03:47:21.763Z,92538.38
2023-11-02T03:49:00.055Z,92536.63
2023-11-02T03:50:34.930Z,92532.81
2023-11-02T03:52:12.719Z,92527.94
2023-11-02T03:53:52.911Z,92530.31
2023-11-02T03:55:24.653Z,92527.00
2023-11-02T03:57:03.638Z,92515.59
2023-11-02T03:58:38.856Z,92512.91
2023-11-02T04:00:14.204Z,92505.03
2023-11-02T04:02:21.898Z,92503.75
2023-11-02T04:03:53.947Z,92493.63
2023-11-02T04:05:25.697Z,92505.47
2023-11-02T04:07:01.018Z,92522.25
2023-11-02T04:08:34.714Z,92533.28
2023-11-02T04:10:08.561Z,92551.03
2023-11-02T04:11:48.829Z,92551.94
2023-11-02T04:13:20.636Z,92560.81
2023-11-02T04:14:52.815Z,92553.53
2023-11-02T04:16:26.519Z,92548.16
2023-11-02T04:18:01.091Z,92538.97
2023-11-02T04:19:32.833Z,92554.81
2023-11-02T04:21:04.606Z,92549.09
2023-11-02T04:22:36.168Z,92552.59
2023-11-02T04:24:08.109Z,92551.94
2023-11-02T04:25:40.465Z,92543.84
2023-11-02T04:27:12.310Z,92542.75
2023-11-02T04:28:44.172Z,92543.06
2023-11-02T04:30:18.649Z,92538.81
2023-11-02T04:31:50.668Z,92536.13
2023-11-02T04:33:22.379Z,92526.59
2023-11-02T04:34:54.329Z,92522.50
2023-11-02T04:36:26.043Z,92517.41
2023-11-02T04:38:07.002Z,92519.44
2023-11-02T04:39:38.574Z,92523.09
2023-11-02T04:41:10.671Z,92513.59
2023-11-02T04:42:42.390Z,92519.09
2023-11-02T04:44:14.123Z,92512.59
2023-11-02T04:45:46.676Z,92522.09
2023-11-02T04:47:18.251Z,92514.19
2023-11-02T04:48:50.206Z,92527.19
2023-11-02T04:50:22.036Z,92524.69
2023-11-02T04:51:57.203Z,92519.59
2023-11-02T04:53:28.883Z,92528.78
2023-11-02T04:55:00.578Z,92523.56
2023-11-02T04:56:32.238Z,92524.47
2023-11-02T04:58:04.325Z,92529.06
2023-11-02T04:59:36.212Z,92520.03
2023-11-02T05:01:07.704Z,92524.78
2023-11-02T05:02:39.715Z,92519.41
2023-11-02T05:04:11.439Z,92518.94
2023-11-02T05:05:43.156Z,92519.09
2023-11-02T05:07:14.846Z,92518.97
2023-11-02T05:08:46.611Z,92513.75
2023-11-02T05:10:18.415Z,92516.28
2023-11-02T05:11:50.044Z,92518.53
2023-11-02T05:13:21.831Z,92523.13
2023-11-02T05:14:53.509Z,92520.56
2023-11-02T05:16:25.160Z,92523.09
2023-11-02T05:17:56.924Z,92525.91
2023-11-02T05:19:28.636Z,92525.59
2023-11-02T05:21:01.206Z,92523.84
2023-11-02T05:22:32.952Z,92531.75
2023-11-02T05:24:05.043Z,92525.72
2023-11-02T05:25:36.841Z,92527.44
2023-11-02T05:27:08.488Z,92530.94
2023-11-02T05:28:40.496Z,92530.47
2023-11-02T05:30:12.351Z,92536.47
2023-11-02T05:31:44.100Z,92542.38
2023-11-02T05:33:15.966Z,92542.84
2023-11-02T05:34:47.598Z,92540.66
2023-11-02T05:36:26.590Z,92538.94
2023-11-02T05:37:58.402Z,92540.06
2023-11-02T05:39:30.191Z,92542.28
2023-11-02T05:41:01.883Z,92547.50
2023-11-02T05:42:33.448Z,92549.09
2023-11-02T05:44:05.782Z,92546.06
2023-11-02T05:45:37.617Z,92556.22
2023-11-02T05:47:09.587Z,92558.91
2023-11-02T05:48:41.249Z,92557.75
2023-11-02T05:50:13.866Z,92557.75
2023-11-02T05:51:45.866Z,92563.94
2023-11-02T05:53:17.497Z,92559.69
2023-11-02T05:54:49.190Z,92567.63
2023-11-02T05:56:20.759Z,92562.69
2023-11-02T05:57:55.142Z,92565.53
2023-11-02T05:59:27.353Z,92560.31
2023-11-02T06:00:59.211Z,92558.91
2023-11-02T06:02:33.596Z,92565.38
2023-11-02T06:04:05.355Z,92562.69
2023-11-02T06:05:37.039Z,92557.75
2023-11-02T06:07:08.783Z,92562.03
2023-11-02T06:08:40.488Z,92563.16
2023-11-02T06:10:12.098Z,92553.19
2023-11-02T06:11:44.022Z,92552.38
2023-11-02T06:13:15.656Z,92556.66
2023-11-02T06:14:47.319Z,92555.22
2023-11-02T06:16:18.809Z,92551.13
2023-11-02T06:17:50.591Z,92546.53
2023-11-02T06:19:22.405Z,92547.00
2023-11-02T06:20:54.288Z,92548.59
2023-11-02T06:22:25.932Z,92539.72
2023-11-02T06:23:57.999Z,92543.66
2023-11-02T06:25:29.675Z,92538.41
2023-11-02T06:27:01.347Z,92533.97
2023-11-02T06:28:33.391Z,92540.28
2023-11-02T06:30:05.385Z,92542.03
2023-11-02T06:31:37.415Z,92543.75
2023-11-02T06:33:09.178Z,92546.25
2023-11-02T06:34:41.318Z,92544.69
2023-11-02T06:36:13.011Z,92550.25
2023-11-02T06:37:59.993Z,92552.16
2023-11-02T06:39:31.753Z,92535.22
2023-11-02T06:41:03.778Z,92542.19
2023-11-02T06:42:36.103Z,92535.16
2023-11-02T06:44:08.123Z,92535.75
2023-11-02T06:45:39.904Z,92532.91
2023-11-02T06:47:12.561Z,92533.06
2023-11-02T06:48:44.296Z,92530.47
2023-11-02T06:50:15.973Z,92537.13
2023-11-02T06:51:47.515Z,92528.72
2023-11-02T06:53:19.195Z,92534.13
2023-11-02T06:54:50.771Z,92537.59
2023-11-02T06:56:26.544Z,92538.53
2023-11-02T06:57:58.157Z,92538.53
2023-11-02T06:59:29.669Z,92538.97
2023-11-02T07:01:01.611Z,92535.97
2023-11-02T07:02:33.697Z,92540.56
2023-11-02T07:04:06.132Z,92545.63
2023-11-02T07:05:38.263Z,92541.34
2023-11-02T07:07:10.416Z,92544.22
2023-11-02T07:08:42.461Z,92544.69
2023-11-02T07:10:15.797Z,92545.97
2023-11-02T07:11:47.391Z,92536.88
2023-11-02T07:13:20.169Z,92538.63
2023-11-02T07:14:51.807Z,92537.50
2023-11-02T07:16:23.466Z,92535.28
2023-11-02T07:17:54.979Z,92539.25
2023-11-02T07:19:26.613Z,92541.47
2023-11-02T07:20:58.303Z,92549.56
2023-11-02T07:22:29.957Z,92544.19
2023-11-02T07:24:03.493Z,92551.63
2023-11-02T07:25:35.364Z,92549.72
2023-11-02T07:27:08.749Z,92546.22
2023-11-02T07:28:40.374Z,92548.28
2023-11-02T07:30:12.570Z,92554.78
2023-11-02T07:31:45.631Z,92551.47
2023-11-02T07:33:18.872Z,92547.53
2023-11-02T07:34:50.524Z,92551.34
2023-11-02T07:36:25.983Z,92544.84
2023-11-02T07:37:58.170Z,92546.56
2023-11-02T07:39:30.254Z,92540.84
2023-11-02T07:41:01.891Z,92537.97
2023-11-02T07:42:33.479Z,92536.97
2023-11-02T07:44:05.208Z,92529.34
2023-11-02T07:45:37.223Z,92535.69
2023-11-02T07:47:08.878Z,92536.41
2023-11-02T07:48:41.494Z,92540.16
2023-11-02T07:50:13.579Z,92537.38
2023-11-02T07:51:45.253Z,92538.00
2023-11-02T07:53:16.951Z,92540.69
2023-11-02T07:54:48.757Z,92534.91
2023-11-02T07:56:20.371Z,92530.03
2023-11-02T07:57:52.066Z,92532.59
2023-11-02T07:59:23.697Z,92535.16
2023-11-02T08:00:55.330Z,92531.81
2023-11-02T08:02:26.879Z,92532.31
2023-11-02T08:03:58.655Z,92536.97
2023-11-02T08:05:30.501Z,92536.19
2023-11-02T08:07:02.481Z,92535.88
2023-11-02T08:08:34.979Z,92542.50
2023-11-02T08:10:07.245Z,92534.91
2023-11-02T08:11:39.718Z,92531.88
2023-11-02T08:13:11.404Z,92538.31
2023-11-02T08:14:43.689Z,92543.97
2023-11-02T08:16:20.874Z,92538.25
2023-11-02T08:17:52.574Z,92539.84
2023-11-02T08:19:24.268Z,92536.34
2023-11-02T08:20:56.049Z,92531.59
2023-11-02T08:22:29.777Z,92535.56
2023-11-02T08:24:01.349Z,92531.09
2023-11-02T08:25:33.043Z,92532.31
2023-11-02T08:27:06.191Z,92535.50
2023-11-02T08:28:37.950Z,92525.50
2023-11-02T08:30:10.121Z,92524.84
2023-11-02T08:31:41.758Z,92520.38
2023-11-02T08:33:13.525Z,92521.59
2023-11-02T08:34:45.214Z,92520.94
2023-11-02T08:36:16.805Z,92524.13
2023-11-02T08:37:51.194Z,92520.75
2023-11-02T08:39:23.114Z,92527.06
2023-11-02T08:40:54.880Z,92528.00
2023-11-02T08:42:29.731Z,92534.97
2023-11-02T08:44:04.494Z,92539.09
2023-11-02T08:45:36.336Z,92536.88
2023-11-02T08:47:08.749Z,92540.03
2023-11-02T08:48:40.470Z,92532.50
2023-11-02T08:50:13.068Z,92534.22
2023-11-02T08:51:45.927Z,92533.69
2023-11-02T08:53:17.528Z,92533.03
2023-11-02T08:54:49.604Z,92532.72
2023-11-02T08:56:21.365Z,92530.34
2023-11-02T08:57:53.320Z,92512.09
2023-11-02T08:59:24.833Z,92523.56
2023-11-02T09:00:57.195Z,92512.00
2023-11-02T09:02:29.330Z,92512.88
2023-11-02T09:04:01.234Z,92513.03
2023-11-02T09:05:32.900Z,92513.59
2023-11-02T09:07:04.672Z,92511.81
2023-11-02T09:08:36.731Z,92503.53
2023-11-02T09:10:09.797Z,92519.66
2023-11-02T09:11:41.366Z,92516.41
2023-11-02T09:13:13.198Z,92507.31
2023-11-02T09:14:45.391Z,92512.47
2023-11-02T09:16:17.020Z,92511.03
2023-11-02T09:17:48.605Z,92508.44
2023-11-02T09:19:20.281Z,92504.41
2023-11-02T09:20:52.368Z,92506.09
2023-11-02T09:22:25.687Z,92496.75
2023-11-02T09:23:59.834Z,92500.38
2023-11-02T09:25:31.996Z,92490.78
2023-11-02T09:27:03.669Z,92492.69
2023-11-02T09:28:35.219Z,92487.72
2023-11-02T09:30:07.243Z,92478.03
2023-11-02T09:31:42.233Z,92477.69
2023-11-02T09:33:17.985Z,92480.44
2023-11-02T09:34:49.703Z,92475.22
2023-11-02T09:36:21.749Z,92470.13
2023-11-02T09:37:53.297Z,92463.00
2023-11-02T09:39:24.959Z,92465.22
2023-11-02T09:40:56.610Z,92461.47
2023-11-02T09:42:30.203Z,92459.09
2023-11-02T09:44:01.906Z,92463.47
2023-11-02T09:45:33.599Z,92461.00
2023-11-02T09:47:05.452Z,92454.06
2023-11-02T09:48:37.414Z,92453.22
2023-11-02T09:50:09.962Z,92453.56
2023-11-02T09:51:41.754Z,92452.34
2023-11-02T09:53:13.487Z,92449.81
2023-11-02T09:54:48.476Z,92445.78
2023-11-02T09:56:20.828Z,92449.28
2023-11-02T09:57:52.696Z,92446.97
2023-11-02T09:59:24.332Z,92444.84
2023-11-02T10:00:56.020Z,92437.84
2023-11-02T10:02:27.603Z,92439.72
2023-11-02T10:03:59.207Z,92435.69
2023-11-02T10:05:30.818Z,92430.94
2023-11-02T10:07:02.516Z,92430.00
2023-11-02T10:08:34.161Z,92429.19
2023-11-02T10:10:05.978Z,92415.31
2023-11-02T10:11:37.639Z,92416.59
2023-11-02T10:13:09.394Z,92418.69
2023-11-02T10:14:41.049Z,92409.13
2023-11-02T10:16:12.961Z,92403.22
2023-11-02T10:17:45.665Z,92408.88
2023-11-02T10:19:18.263Z,92405.16
2023-11-02T10:20:52.032Z,92407.25
2023-11-02T10:22:23.727Z,92405.34
2023-11-02T10:23:56.528Z,92404.22
2023-11-02T10:25:29.244Z,92408.72
2023-11-02T10:27:01.032Z,92409.59
2023-11-02T10:28:32.886Z,92409.34
2023-11-02T10:30:05.093Z,92406.56
2023-11-02T10:31:37.984Z,92415.09
2023-11-02T10:33:09.893Z,92411.34
2023-11-02T10:34:43.305Z,92423.78
2023-11-02T10:36:15.660Z,92412.47
2023-11-02T10:37:47.310Z,92418.28
2023-11-02T10:39:21.928Z,92424.81
2023-11-02T10:40:54.182Z,92420.81
2023-11-02T10:42:27.292Z,92421.84
2023-11-02T10:43:59.129Z,92420.19
2023-11-02T10:45:30.868Z,92416.28
2023-11-02T10:47:03.080Z,92420.19
2023-11-02T10:48:35.226Z,92413.91
2023-11-02T10:50:07.049Z,92419.94
2023-11-02T10:51:38.832Z,92410.16
2023-11-02T10:53:10.817Z,92408.94
2023-11-02T10:54:50.865Z,92408.16
2023-11-02T10:56:22.723Z,92403.44
2023-11-02T10:57:54.509Z,92407.31
2023-11-02T10:59:26.073Z,92404.16
2023-11-02T11:00:57.689Z,92404.09
2023-11-02T11:02:29.452Z,92399.38
2023-11-02T11:04:01.202Z,92396.97
2023-11-02T11:05:32.877Z,92392.38
2023-11-02T11:07:04.602Z,92385.38
2023-11-02T11:08:36.277Z,92395.59
2023-11-02T11:10:10.654Z,92389.88
2023-11-02T11:11:43.993Z,92393.41
2023-11-02T11:13:15.996Z,92391.50
2023-11-02T11:14:47.934Z,92385.97
2023-11-02T11:16:21.241Z,92383.22
2023-11-02T11:17:53.101Z,92385.88
2023-11-02T11:19:24.987Z,92384.03
2023-11-02T11:20:56.649Z,92380.31
2023-11-02T11:22:29.202Z,92379.41
2023-11-02T11:24:08.701Z,92374.75
2023-11-02T11:26:06.420Z,92380.28
2023-11-02T11:27:38.688Z,92370.97
2023-11-02T11:29:29.258Z,92367.47
2023-11-02T11:31:01.111Z,92358.59
2023-11-02T11:32:33.600Z,92353.06
2023-11-02T11:34:05.288Z,92349.94
2023-11-02T11:35:36.836Z,92341.31
2023-11-02T11:37:27.183Z,92340.56
2023-11-02T11:38:59.838Z,92333.06
2023-11-02T11:40:33.082Z,92331.13
2023-11-02T11:42:04.756Z,92322.84
2023-11-02T11:43:56.281Z,92320.00
2023-11-02T11:45:28.729Z,92314.75
2023-11-02T11:47:04.076Z,92311.13
2023-11-02T11:48:37.391Z,92303.53
2023-11-02T11:50:09.047Z,92301.44
2023-11-02T11:51:41.728Z,92298.94
2023-11-02T11:53:13.427Z,92297.94
2023-11-02T11:54:45.022Z,92304.38
2023-11-02T11:56:31.960Z,92298.28
2023-11-02T11:58:04.522Z,92292.16
2023-11-02T11:59:54.804Z,92289.13
2023-11-02T12:01:26.464Z,92274.31
2023-11-02T12:03:06.353Z,92277.06
2023-11-02T12:04:47.312Z,92270.44
2023-11-02T12:06:37.199Z,92275.13
2023-11-02T12:08:09.124Z,92268.88
2023-11-02T12:09:40.746Z,92263.03
2023-11-02T12:11:15.547Z,92271.59
2023-11-02T12:12:47.510Z,92267.31
2023-11-02T12:14:20.609Z,92266.56
2023-11-02T12:15:55.777Z,92269.28
2023-11-02T12:17:27.940Z,92261.13
2023-11-02T12:18:59.566Z,92259.91
2023-11-02T12:20:38.074Z,92260.28
2023-11-02T12:22:12.034Z,92255.19
2023-11-02T12:23:45.455Z,92260.22
2023-11-02T12:25:20.539Z,92255.16
2023-11-02T12:26:52.432Z,92261.03
2023-11-02T12:28:24.375Z,92252.44
2023-11-02T12:29:56.442Z,92254.38
2023-11-02T12:31:31.722Z,92253.19
2023-11-02T12:33:04.016Z,92253.53
2023-11-02T12:34:35.858Z,92253.19
2023-11-02T12:36:08.433Z,92253.59
2023-11-02T12:37:39.988Z,92252.78
2023-11-02T12:39:20.315Z,92251.22
2023-11-02T12:40:52.323Z,92250.78
2023-11-02T12:42:25.084Z,92262.50
2023-11-02T12:43:59.495Z,92265.66
2023-11-02T12:45:31.705Z,92264.09
2023-11-02T12:47:06.226Z,92267.63
2023-11-02T12:48:38.977Z,92268.78
2023-11-02T12:50:29.956Z,92275.44
2023-11-02T12:52:06.280Z,92268.75
2023-11-02T12:53:38.960Z,92267.22
2023-11-02T12:55:12.926Z,92268.78
2023-11-02T12:56:45.664Z,92260.97
2023-11-02T12:58:17.747Z,92276.63
2023-11-02T12:59:50.338Z,92267.28
2023-11-02T13:01:24.105Z,92277.53
2023-11-02T13:03:10.382Z,92279.84
2023-11-02T13:04:55.089Z,92276.31
2023-11-02T13:06:27.844Z,92274.75
2023-11-02T13:07:59.751Z,92267.31
2023-11-02T13:09:31.438Z,92259.53
2023-11-02T13:11:03.361Z,92271.25
2023-11-02T13:12:38.009Z,92260.69
2023-11-02T13:14:09.983Z,92264.19
2023-11-02T13:15:42.157Z,92271.22
2023-11-02T13:17:14.973Z,92271.63
2023-11-02T13:18:52.489Z,92273.59
2023-11-02T13:20:24.547Z,92281.00
2023-11-02T13:21:56.283Z,92279.84
2023-11-02T13:23:29.988Z,92275.53
2023-11-02T13:25:01.978Z,92274.75
2023-11-02T13:26:33.649Z,92269.66
2023-11-02T13:28:08.465Z,92275.56
2023-11-02T13:29:42.398Z,92274.38
2023-11-02T13:31:14.244Z,92273.59
2023-11-02T13:32:46.070Z,92270.84
2023-11-02T13:34:17.726Z,92268.50
2023-11-02T13:35:49.425Z,92268.09
2023-11-02T13:37:21.150Z,92263.81
2023-11-02T13:38:53.587Z,92262.66
2023-11-02T13:40:28.268Z,92270.47
2023-11-02T13:42:00.779Z,92269.28
2023-11-02T13:43:33.130Z,92277.50
2023-11-02T13:45:07.892Z,92272.41
2023-11-02T13:46:40.149Z,92279.81
2023-11-02T13:48:13.477Z,92276.69
2023-11-02T13:49:45.046Z,92268.03
2023-11-02T13:51:17.024Z,92266.03
2023-11-02T13:52:48.717Z,92264.84
2023-11-02T13:54:20.774Z,92270.66
2023-11-02T13:55:52.536Z,92267.13
2023-11-02T13:57:24.574Z,92274.91
2023-11-02T13:58:56.510Z,92279.13
2023-11-02T14:00:28.147Z,92279.50
2023-11-02T14:01:59.778Z,92289.19
2023-11-02T14:03:31.956Z,92287.13
2023-11-02T14:05:04.710Z,92285.91
2023-11-02T14:06:37.313Z,92292.16
2023-11-02T14:08:09.038Z,92294.88
2023-11-02T14:09:42.521Z,92296.44
2023-11-02T14:11:14.558Z,92294.09
2023-11-02T14:12:48.233Z,92293.69
2023-11-02T14:14:20.002Z,92298.34
2023-11-02T14:15:51.980Z,92302.63
2023-11-02T14:17:24.749Z,92295.22
2023-11-02T14:18:56.639Z,92297.16
2023-11-02T14:20:28.256Z,92297.94
2023-11-02T14:21:59.921Z,92298.72
2023-11-02T14:23:31.525Z,92301.88
2023-11-02T14:25:03.537Z,92303.84
2023-11-02T14:26:35.318Z,92308.19
2023-11-02T14:28:07.094Z,92303.50
2023-11-02T14:29:38.946Z,92303.06
2023-11-02T14:31:10.628Z,92298.69
2023-11-02T14:32:42.897Z,92307.94
2023-11-02T14:34:14.703Z,92303.09
2023-11-02T14:35:46.520Z,92304.84
2023-11-02T14:37:18.128Z,92307.13
2023-11-02T14:38:49.797Z,92305.16
2023-11-02T14:40:21.393Z,92301.22
2023-11-02T14:41:53.019Z,92305.38
2023-11-02T14:43:24.785Z,92311.19
2023-11-02T14:44:58.486Z,92313.50
2023-11-02T14:46:30.286Z,92305.69
2023-11-02T14:48:02.042Z,92314.94
2023-11-02T14:49:33.927Z,92313.69
2023-11-02T14:51:06.059Z,92309.81
2023-11-02T14:52:38.188Z,92314.88
2023-11-02T14:54:09.849Z,92316.41
2023-11-02T14:55:42.127Z,92320.22
2023-11-02T14:57:13.716Z,92319.50
2023-11-02T14:58:45.425Z,92317.59
2023-11-02T15:00:20.689Z,92307.09
2023-11-02T15:01:53.833Z,92300.47
2023-11-02T15:03:25.575Z,92297.72
2023-11-02T15:04:57.337Z,92282.16
2023-11-02T15:06:30.578Z,92289.13
2023-11-02T15:08:03.824Z,92279.81
2023-11-02T15:09:35.643Z,92284.84
2023-11-02T15:11:07.330Z,92293.41
2023-11-02T15:12:41.191Z,92283.25
2023-11-02T15:14:12.944Z,92287.50
2023-11-02T15:15:44.760Z,92281.63
2023-11-02T15:17:16.960Z,92283.94
2023-11-02T15:18:48.677Z,92281.94
2023-11-02T15:20:22.324Z,92278.78
2023-11-02T15:21:54.072Z,92285.34
2023-11-02T15:23:26.630Z,92287.16
2023-11-02T15:24:58.310Z,92291.41
2023-11-02T15:26:29.894Z,92297.97
2023-11-02T15:28:02.297Z,92299.44
2023-11-02T15:29:35.752Z,92293.91
2023-11-02T15:31:07.353Z,92289.56
2023-11-02T15:32:41.714Z,92299.22
2023-11-02T15:34:15.367Z,92298.75
2023-11-02T15:35:48.436Z,92297.09
2023-11-02T15:37:20.058Z,92305.94
2023-11-02T15:38:52.301Z,92306.66
2023-11-02T15:40:23.983Z,92312.38
2023-11-02T15:41:55.880Z,92308.44
2023-11-02T15:43:27.527Z,92303.38
2023-11-02T15:44:59.956Z,92318.06
2023-11-02T15:46:31.981Z,92308.66
2023-11-02T15:48:04.117Z,92319.47
2023-11-02T15:49:39.429Z,92319.03
2023-11-02T15:51:11.256Z,92332.22
2023-11-02T15:52:45.212Z,92322.41
2023-11-02T15:54:17.706Z,92329.72
2023-11-02T15:55:49.644Z,92324.94
2023-11-02T15:57:21.382Z,92317.41
2023-11-02T15:58:53.506Z,92320.38
2023-11-02T16:00:26.197Z,92321.53
2023-11-02T16:02:07.940Z,92317.97
2023-11-02T16:03:44.759Z,92321.00
2023-11-02T16:05:16.494Z,92329.06
2023-11-02T16:06:50.554Z,92321.63
2023-11-02T16:08:23.141Z,92325.81
2023-11-02T16:09:54.903Z,92321.25
2023-11-02T16:11:26.521Z,92314.50
2023-11-02T16:12:58.090Z,92321.69
2023-11-02T16:14:30.992Z,92318.56
2023-11-02T16:16:09.262Z,92315.34
2023-11-02T16:17:42.577Z,92326.03
2023-11-02T16:19:14.219Z,92319.75
2023-11-02T16:20:45.967Z,92323.56
2023-11-02T16:22:17.583Z,92319.91
2023-11-02T16:23:49.165Z,92325.19
2023-11-02T16:25:21.561Z,92326.25
2023-11-02T16:26:55.922Z,92327.75
2023-11-02T16:28:28.381Z,92329.16
2023-11-02T16:29:59.913Z,92320.16
2023-11-02T16:31:31.497Z,92325.53
2023-11-02T16:33:04.174Z,92326.25
2023-11-02T16:34:42.208Z,92323.44
2023-11-02T16:36:35.366Z,92310.63
2023-11-02T16:38:07.083Z,92309.41
2023-11-02T16:39:41.176Z,92305.47
2023-11-02T16:41:13.233Z,92296.75
2023-11-02T16:42:44.959Z,92293.88
2023-11-02T16:44:17.071Z,92297.06
2023-11-02T16:45:48.724Z,92297.16
2023-11-02T16:47:20.359Z,92291.19
2023-11-02T16:48:52.523Z,92280.22
2023-11-02T16:50:24.325Z,92276.91
2023-11-02T16:51:56.047Z,92278.75
2023-11-02T16:53:27.582Z,92270.47
2023-11-02T16:54:59.313Z,92269.56
2023-11-02T16:56:31.880Z,92255.94
2023-11-02T16:58:03.455Z,92257.47
2023-11-02T16:59:36.338Z,92255.16
2023-11-02T17:01:07.953Z,92246.53
2023-11-02T17:02:40.070Z,92239.00
2023-11-02T17:04:11.940Z,92238.16
2023-11-02T17:05:44.440Z,92240.78
2023-11-02T17:07:16.029Z,92236.78
2023-11-02T17:08:47.721Z,92238.25
2023-11-02T17:10:19.330Z,92233.53
2023-11-02T17:11:51.020Z,92227.69
2023-11-02T17:13:22.955Z,92222.59
2023-11-02T17:14:54.983Z,92216.78
2023-11-02T17:16:27.839Z,92210.59
2023-11-02T17:17:59.605Z,92218.25
2023-11-02T17:19:32.025Z,92225.25
2023-11-02T17:21:04.001Z,92231.34
2023-11-02T17:22:35.641Z,92238.34
2023-11-02T17:24:07.399Z,92238.78
2023-11-02T17:25:39.005Z,92242.25
2023-11-02T17:27:10.970Z,92247.69
2023-11-02T17:28:43.127Z,92245.41
2023-11-02T17:30:15.013Z,92237.63
2023-11-02T17:31:46.707Z,92249.94
2023-11-02T17:33:18.507Z,92242.16
2023-11-02T17:34:50.379Z,92242.16
2023-11-02T17:36:22.233Z,92242.63
2023-11-02T17:37:53.813Z,92238.16
2023-11-02T17:39:25.413Z,92241.31
2023-11-02T17:40:57.063Z,92249.06
2023-11-02T17:42:31.889Z,92244.78
2023-11-02T17:44:03.552Z,92256.75
2023-11-02T17:45:36.131Z,92251.69
2023-11-02T17:47:08.346Z,92255.63
2023-11-02T17:48:40.854Z,92252.91
2023-11-02T17:50:12.808Z,92258.75
2023-11-02T17:51:44.617Z,92260.34
2023-11-02T17:53:16.289Z,92263.50
2023-11-02T17:54:48.122Z,92262.69
2023-11-02T17:56:19.687Z,92265.03
2023-11-02T17:57:51.614Z,92267.41
2023-11-02T17:59:23.937Z,92275.97
2023-11-02T18:00:57.330Z,92278.31
2023-11-02T18:02:28.999Z,92284.88
2023-11-02T18:04:00.710Z,92281.72
2023-11-02T18:05:32.590Z,92291.06
2023-11-02T18:07:04.312Z,92293.88
2023-11-02T18:08:35.973Z,92292.81
2023-11-02T18:10:08.218Z,92297.88
2023-11-02T18:11:39.848Z,92304.75
2023-11-02T18:13:11.456Z,92307.75
2023-11-02T18:14:43.417Z,92299.53
2023-11-02T18:16:15.007Z,92311.41
2023-11-02T18:17:47.098Z,92302.06
2023-11-02T18:19:21.591Z,92309.63